Time,TemperatureF,DewpointF,PressureIn,WindDirection,WindDirectionDegrees,WindSpeedMPH,WindSpeedGustMPH,Humidity,HourlyPrecipIn,Conditions,Clouds,dailyrainin,SoftwareType,DateUTC
2013-04-08 14:28:00,54.0,37.7,0.00,North,0,0.0,0.0,54,0.00,,,-99.99,pyweather 0.1,2013-04-08 21:28:00,
2013-04-08 14:36:00,53.8,36.1,0.00,North,0,0.0,0.0,51,0.00,,,-99.99,pyweather 0.1,2013-04-08 21:36:00,
2013-04-08 14:44:00,53.6,36.4,0.00,North,0,0.0,0.0,52,0.00,,,-99.99,pyweather 0.1,2013-04-08 21:44:00,
2013-04-08 14:52:00,53.6,36.4,0.00,North,0,0.0,0.0,52,0.00,,,-99.99,pyweather 0.1,2013-04-08 21:52:00,
2013-04-08 15:00:00,53.8,38.5,0.00,North,0,0.0,0.0,56,0.00,,,-99.99,pyweather 0.1,2013-04-08 22:00:00,
2013-04-08 15:16:00,55.4,42.2,0.00,North,0,0.0,0.0,61,0.00,,,-99.99,pyweather 0.1,2013-04-08 22:16:00,
2013-04-08 15:24:00,56.3,44.3,0.00,North,0,0.0,0.0,64,0.00,,,-99.99,pyweather 0.1,2013-04-08 22:24:00,
2013-04-08 15:32:00,56.8,42.7,0.00,North,0,0.0,0.0,59,0.00,,,-99.99,pyweather 0.1,2013-04-08 22:32:00,
2013-04-08 15:40:00,56.5,43.2,0.00,North,0,0.0,0.0,61,0.00,,,-99.99,pyweather 0.1,2013-04-08 22:40:00,
2013-04-08 15:56:00,54.5,40.9,0.00,North,0,0.0,0.0,60,0.00,,,-99.99,pyweather 0.1,2013-04-08 22:56:00,
2013-04-08 16:04:00,54.5,41.8,0.00,North,0,0.0,0.0,62,0.00,,,-99.99,pyweather 0.1,2013-04-08 23:04:00,
2013-04-08 16:12:00,54.0,40.4,0.00,North,0,0.0,0.0,60,0.00,,,-99.99,pyweather 0.1,2013-04-08 23:12:00,
2013-04-08 16:20:00,53.8,40.7,0.00,North,0,0.0,0.0,61,0.00,,,-99.99,pyweather 0.1,2013-04-08 23:20:00,
2013-04-08 16:37:00,53.6,40.9,0.00,North,0,0.0,0.0,62,0.00,,,-99.99,pyweather 0.1,2013-04-08 23:37:00,
2013-04-08 16:45:00,53.8,41.1,0.00,North,0,0.0,0.0,62,0.00,,,-99.99,pyweather 0.1,2013-04-08 23:45:00,
2013-04-08 16:53:00,54.0,40.8,0.00,North,0,0.0,0.0,61,0.00,,,-99.99,pyweather 0.1,2013-04-08 23:53:00,
2013-04-08 17:01:00,54.1,40.6,0.00,North,0,0.0,0.0,60,0.00,,,-99.99,pyweather 0.1,2013-04-09 00:01:00,
2013-04-08 17:09:00,54.0,40.4,0.00,North,0,0.0,0.0,60,0.00,,,-99.99,pyweather 0.1,2013-04-09 00:09:00,
2013-04-08 17:17:00,53.6,39.2,0.00,North,0,0.0,0.0,58,0.00,,,-99.99,pyweather 0.1,2013-04-09 00:17:00,
2013-04-08 17:25:00,53.4,39.5,0.00,North,0,0.0,0.0,59,0.00,,,-99.99,pyweather 0.1,2013-04-09 00:25:00,
2013-04-08 17:33:00,53.4,40.3,0.00,North,0,0.0,0.0,61,0.00,,,-99.99,pyweather 0.1,2013-04-09 00:33:00,
2013-04-08 17:49:00,53.4,39.5,0.00,North,0,0.0,0.0,59,0.00,,,-99.99,pyweather 0.1,2013-04-09 00:49:00,
2013-04-08 17:57:00,53.2,39.7,0.00,North,0,0.0,0.0,60,0.00,,,-99.99,pyweather 0.1,2013-04-09 00:57:00,
2013-04-08 18:05:00,53.1,40.0,0.00,North,0,0.0,0.0,61,0.00,,,-99.99,pyweather 0.1,2013-04-09 01:05:00,
2013-04-08 18:13:00,53.1,40.0,0.00,North,0,0.0,0.0,61,0.00,,,-99.99,pyweather 0.1,2013-04-09 01:13:00,
2013-04-08 18:37:00,52.7,40.1,0.00,North,0,0.0,0.0,62,0.00,,,-99.99,pyweather 0.1,2013-04-09 01:37:00,
2013-04-08 18:45:00,52.5,39.9,0.00,North,0,0.0,0.0,62,0.00,,,-99.99,pyweather 0.1,2013-04-09 01:45:00,
2013-04-08 18:53:00,52.3,40.1,0.00,North,0,0.0,0.0,63,0.00,,,-99.99,pyweather 0.1,2013-04-09 01:53:00,
2013-04-08 19:17:00,51.4,41.6,0.00,North,0,0.0,0.0,69,0.00,,,-99.99,pyweather 0.1,2013-04-09 02:17:00,
2013-04-08 19:25:00,51.1,41.7,0.00,North,0,0.0,0.0,70,0.00,,,-99.99,pyweather 0.1,2013-04-09 02:25:00,
2013-04-08 19:33:00,50.7,41.3,0.00,North,0,0.0,0.0,70,0.00,,,-99.99,pyweather 0.1,2013-04-09 02:33:00,
2013-04-08 19:49:00,50.2,41.5,0.00,North,0,0.0,0.0,72,0.00,,,-99.99,pyweather 0.1,2013-04-09 02:49:00,
2013-04-08 19:57:00,49.8,41.5,0.00,North,0,0.0,0.0,73,0.00,,,-99.99,pyweather 0.1,2013-04-09 02:57:00,
2013-04-08 20:05:00,49.3,41.0,0.00,North,0,0.0,0.0,73,0.00,,,-99.99,pyweather 0.1,2013-04-09 03:05:00,
2013-04-08 20:13:00,49.1,41.2,0.00,North,0,0.0,0.0,74,0.00,,,-99.99,pyweather 0.1,2013-04-09 03:13:00,
2013-04-08 20:21:00,48.9,41.0,0.00,North,0,0.0,0.0,74,0.00,,,-99.99,pyweather 0.1,2013-04-09 03:21:00,
2013-04-08 20:29:00,48.7,41.2,0.00,North,0,0.0,0.0,75,0.00,,,-99.99,pyweather 0.1,2013-04-09 03:29:00,
2013-04-08 20:37:00,48.6,41.0,0.00,North,0,0.0,0.0,75,0.00,,,-99.99,pyweather 0.1,2013-04-09 03:37:00,
2013-04-08 20:45:00,48.4,41.2,0.00,North,0,0.0,0.0,76,0.00,,,-99.99,pyweather 0.1,2013-04-09 03:45:00,
2013-04-08 20:53:00,48.2,41.0,0.00,North,0,0.0,0.0,76,0.00,,,-99.99,pyweather 0.1,2013-04-09 03:53:00,
2013-04-08 21:01:00,47.8,40.7,0.00,North,0,0.0,0.0,76,0.00,,,-99.99,pyweather 0.1,2013-04-09 04:01:00,
2013-04-08 21:09:00,47.7,40.8,0.00,North,0,0.0,0.0,77,0.00,,,-99.99,pyweather 0.1,2013-04-09 04:09:00,
2013-04-08 21:17:00,47.7,40.8,0.00,North,0,0.0,0.0,77,0.00,,,-99.99,pyweather 0.1,2013-04-09 04:17:00,
2013-04-08 21:25:00,47.7,41.2,0.00,North,0,0.0,0.0,78,0.00,,,-99.99,pyweather 0.1,2013-04-09 04:25:00,
2013-04-08 21:33:00,47.8,41.7,0.00,North,0,0.0,0.0,79,0.00,,,-99.99,pyweather 0.1,2013-04-09 04:33:00,
2013-04-08 21:41:00,47.8,41.7,0.00,North,0,0.0,0.0,79,0.00,,,-99.99,pyweather 0.1,2013-04-09 04:41:00,
2013-04-08 21:57:00,47.8,42.0,0.00,North,0,0.0,0.0,80,0.00,,,-99.99,pyweather 0.1,2013-04-09 04:57:00,
2013-04-08 22:05:00,47.7,41.8,0.00,North,0,0.0,0.0,80,0.00,,,-99.99,pyweather 0.1,2013-04-09 05:05:00,
2013-04-08 22:13:00,47.7,42.1,0.00,North,0,0.0,0.0,81,0.00,,,-99.99,pyweather 0.1,2013-04-09 05:13:00,
2013-04-08 22:21:00,47.5,42.0,0.00,North,0,0.0,0.0,81,0.00,,,-99.99,pyweather 0.1,2013-04-09 05:21:00,
2013-04-08 22:29:00,47.3,41.8,0.00,North,0,0.0,0.0,81,0.00,,,-99.99,pyweather 0.1,2013-04-09 05:29:00,
2013-04-08 22:37:00,46.9,41.4,0.00,North,0,0.0,0.0,81,0.00,,,-99.99,pyweather 0.1,2013-04-09 05:37:00,
2013-04-08 22:45:00,46.8,41.2,0.00,North,0,0.0,0.0,81,0.00,,,-99.99,pyweather 0.1,2013-04-09 05:45:00,
2013-04-08 22:53:00,46.4,40.9,0.00,North,0,0.0,0.0,81,0.00,,,-99.99,pyweather 0.1,2013-04-09 05:53:00,
2013-04-08 23:01:00,46.0,40.9,0.00,North,0,0.0,0.0,82,0.00,,,-99.99,pyweather 0.1,2013-04-09 06:01:00,
2013-04-08 23:09:00,45.9,40.7,0.00,North,0,0.0,0.0,82,0.00,,,-99.99,pyweather 0.1,2013-04-09 06:09:00,
2013-04-08 23:17:00,45.7,40.5,0.00,North,0,0.0,0.0,82,0.00,,,-99.99,pyweather 0.1,2013-04-09 06:17:00,
2013-04-08 23:25:00,45.3,40.2,0.00,North,0,0.0,0.0,82,0.00,,,-99.99,pyweather 0.1,2013-04-09 06:25:00,
2013-04-08 23:33:00,45.1,40.0,0.00,North,0,0.0,0.0,82,0.00,,,-99.99,pyweather 0.1,2013-04-09 06:33:00,
2013-04-08 23:41:00,44.8,39.6,0.00,North,0,0.0,0.0,82,0.00,,,-99.99,pyweather 0.1,2013-04-09 06:41:00,
2013-04-08 23:49:00,44.6,39.8,0.00,North,0,0.0,0.0,83,0.00,,,-99.99,pyweather 0.1,2013-04-09 06:49:00,
2013-04-08 23:57:00,44.4,39.6,0.00,North,0,0.0,0.0,83,0.00,,,-99.99,pyweather 0.1,2013-04-09 06:57:00,